RAM801F EGLL-GMMN
Flight info
| Callsign | RAM801F |
|---|---|
| Flight time | N/A |
| Altitude | 37000 |
| Route | GASGU N866 SAM M195 MARUK N621 LELNA DCT NOVAN DCT DELOG DCT VADOX DCT SNR DCT TITAN DCT RATAS DCT NEA DCT NONTU DCT ORBIS DCT DISKO DCT TLD DCT DOPEN DCT MONTO DCT MOLIN DCT VJF N10 LINTO UN10 BARIS UB11 TUSOR |
| Aircraft | B38M/M-SDE1FGHILORVWXY/HB1 |
Departure
| Time | N/A |
|---|---|
| Airport | London Heathrow Airport (EGLL) |
Arrival
| Time | 2026-04-27 13:45 |
|---|---|
| Airport | Mohammed V International Airport (GMMN) |
| Time | Latitude | Longitude | Altitude | Speed | Heading |
|---|---|---|---|---|---|
| 2026-04-27 12:00 | 43.74442 | -3.93063 | 37174 ft | 439 kts | 180° |
| 2026-04-27 12:01 | 43.68354 | -3.92478 | 37185 ft | 439 kts | 180° |
| 2026-04-27 12:01 | 43.62248 | -3.91892 | 37177 ft | 439 kts | 180° |
| 2026-04-27 12:02 | 43.56143 | -3.91308 | 37167 ft | 439 kts | 180° |
| 2026-04-27 12:02 | 43.50040 | -3.90725 | 37187 ft | 441 kts | 180° |
| 2026-04-27 12:03 | 43.43932 | -3.90378 | 37173 ft | 435 kts | 190° |
| 2026-04-27 12:03 | 43.37919 | -3.91298 | 37170 ft | 435 kts | 189° |
| 2026-04-27 12:04 | 43.31899 | -3.92184 | 37179 ft | 436 kts | 189° |
| 2026-04-27 12:04 | 43.25870 | -3.93076 | 37178 ft | 436 kts | 189° |
| 2026-04-27 12:05 | 43.19848 | -3.93965 | 37170 ft | 436 kts | 189° |
| 2026-04-27 12:05 | 43.13813 | -3.94855 | 37172 ft | 436 kts | 189° |
| 2026-04-27 12:06 | 43.07775 | -3.95743 | 37160 ft | 436 kts | 189° |
| 2026-04-27 12:06 | 43.01745 | -3.96629 | 37165 ft | 436 kts | 189° |
| 2026-04-27 12:07 | 42.95711 | -3.97513 | 37164 ft | 436 kts | 189° |
| 2026-04-27 12:07 | 42.89682 | -3.98394 | 37163 ft | 437 kts | 189° |
| 2026-04-27 12:08 | 42.83631 | -3.99277 | 37156 ft | 437 kts | 189° |
| 2026-04-27 12:08 | 42.77598 | -4.00156 | 37155 ft | 437 kts | 189° |
| 2026-04-27 12:09 | 42.71557 | -4.01034 | 37161 ft | 437 kts | 189° |
| 2026-04-27 12:09 | 42.65515 | -4.01910 | 37152 ft | 437 kts | 189° |
| 2026-04-27 12:10 | 42.59468 | -4.02785 | 37154 ft | 437 kts | 189° |
| 2026-04-27 12:10 | 42.53428 | -4.03658 | 37119 ft | 437 kts | 189° |
| 2026-04-27 12:11 | 42.47367 | -4.04532 | 37144 ft | 439 kts | 189° |
| 2026-04-27 12:11 | 42.41300 | -4.05406 | 37137 ft | 438 kts | 189° |
| 2026-04-27 12:12 | 42.35271 | -4.06272 | 37124 ft | 438 kts | 189° |
| 2026-04-27 12:12 | 42.29196 | -4.07143 | 37117 ft | 440 kts | 189° |
| 2026-04-27 12:13 | 42.23065 | -4.08020 | 37114 ft | 440 kts | 189° |
| 2026-04-27 12:13 | 42.17020 | -4.08884 | 37109 ft | 440 kts | 189° |
| 2026-04-27 12:14 | 42.10939 | -4.09751 | 37095 ft | 440 kts | 189° |
| 2026-04-27 12:14 | 42.04835 | -4.10619 | 37104 ft | 441 kts | 189° |
| 2026-04-27 12:15 | 41.98716 | -4.11341 | 37105 ft | 442 kts | 187° |
| 2026-04-27 12:15 | 41.92592 | -4.12041 | 37105 ft | 441 kts | 188° |
| 2026-04-27 12:16 | 41.86468 | -4.12744 | 37105 ft | 442 kts | 188° |
| 2026-04-27 12:16 | 41.80335 | -4.13447 | 37102 ft | 443 kts | 188° |
| 2026-04-27 12:17 | 41.74192 | -4.14150 | 37105 ft | 443 kts | 188° |
| 2026-04-27 12:17 | 41.68058 | -4.14851 | 37089 ft | 443 kts | 188° |
| 2026-04-27 12:18 | 41.61896 | -4.15553 | 37103 ft | 444 kts | 188° |
| 2026-04-27 12:18 | 41.55751 | -4.16252 | 37103 ft | 444 kts | 188° |
| 2026-04-27 12:19 | 41.49643 | -4.16944 | 37106 ft | 444 kts | 188° |
| 2026-04-27 12:19 | 41.43446 | -4.17641 | 37106 ft | 445 kts | 188° |
| 2026-04-27 12:20 | 41.37274 | -4.18334 | 37106 ft | 445 kts | 188° |
| 2026-04-27 12:20 | 41.31140 | -4.19022 | 37109 ft | 445 kts | 188° |
| 2026-04-27 12:21 | 41.24972 | -4.19712 | 37103 ft | 445 kts | 188° |
| 2026-04-27 12:21 | 41.18787 | -4.20403 | 37103 ft | 445 kts | 188° |
| 2026-04-27 12:22 | 41.12620 | -4.21091 | 37119 ft | 445 kts | 188° |
| 2026-04-27 12:22 | 41.06438 | -4.21779 | 37112 ft | 445 kts | 188° |
| 2026-04-27 12:23 | 41.01303 | -4.22349 | 37112 ft | 445 kts | 188° |
| 2026-04-27 12:23 | 40.95137 | -4.23032 | 37109 ft | 445 kts | 188° |
| 2026-04-27 12:24 | 40.88961 | -4.23715 | 37106 ft | 445 kts | 188° |
| 2026-04-27 12:24 | 40.82789 | -4.24396 | 37099 ft | 445 kts | 187° |
| 2026-04-27 12:25 | 40.76616 | -4.25076 | 37102 ft | 445 kts | 187° |
| 2026-04-27 12:25 | 40.70441 | -4.25755 | 37109 ft | 445 kts | 188° |
| 2026-04-27 12:26 | 40.64273 | -4.26432 | 37103 ft | 445 kts | 188° |
| 2026-04-27 12:26 | 40.58100 | -4.27108 | 37105 ft | 445 kts | 187° |
| 2026-04-27 12:27 | 40.51918 | -4.27784 | 37090 ft | 445 kts | 187° |
| 2026-04-27 12:27 | 40.45750 | -4.28457 | 37099 ft | 446 kts | 188° |
| 2026-04-27 12:28 | 40.39568 | -4.29130 | 37075 ft | 445 kts | 187° |
| 2026-04-27 12:28 | 40.33400 | -4.29801 | 37085 ft | 445 kts | 188° |
| 2026-04-27 12:29 | 40.27220 | -4.30471 | 37081 ft | 445 kts | 187° |
| 2026-04-27 12:29 | 40.21087 | -4.31135 | 37075 ft | 445 kts | 187° |
| 2026-04-27 12:30 | 40.14916 | -4.31803 | 37067 ft | 445 kts | 187° |
| 2026-04-27 12:30 | 40.08739 | -4.32469 | 37073 ft | 445 kts | 187° |
| 2026-04-27 12:31 | 40.02559 | -4.33135 | 37067 ft | 445 kts | 187° |
| 2026-04-27 12:31 | 39.96400 | -4.33911 | 37060 ft | 443 kts | 193° |
| 2026-04-27 12:32 | 39.90311 | -4.35267 | 37060 ft | 444 kts | 192° |
| 2026-04-27 12:32 | 39.84217 | -4.36540 | 37057 ft | 444 kts | 192° |
| 2026-04-27 12:33 | 39.78106 | -4.37803 | 37058 ft | 444 kts | 192° |
| 2026-04-27 12:33 | 39.72006 | -4.39100 | 37046 ft | 444 kts | 192° |
| 2026-04-27 12:34 | 39.65920 | -4.40402 | 37046 ft | 444 kts | 192° |
| 2026-04-27 12:34 | 39.59821 | -4.41703 | 37056 ft | 444 kts | 192° |
| 2026-04-27 12:35 | 39.53713 | -4.43004 | 37035 ft | 444 kts | 192° |
| 2026-04-27 12:35 | 39.47620 | -4.44299 | 37034 ft | 444 kts | 192° |
| 2026-04-27 12:36 | 39.41520 | -4.45594 | 37043 ft | 444 kts | 191° |
| 2026-04-27 12:36 | 39.35413 | -4.46888 | 37045 ft | 444 kts | 192° |
| 2026-04-27 12:37 | 39.29329 | -4.48174 | 37043 ft | 444 kts | 191° |
| 2026-04-27 12:37 | 39.23305 | -4.49602 | 37032 ft | 440 kts | 201° |
| 2026-04-27 12:37 | 39.20562 | -4.51301 | 37036 ft | 435 kts | 214° |
| 2026-04-27 12:38 | 39.17998 | -4.53397 | 37028 ft | 438 kts | 214° |
| 2026-04-27 12:38 | 39.12882 | -4.57644 | 37040 ft | 438 kts | 214° |
| 2026-04-27 12:39 | 39.07804 | -4.61946 | 37027 ft | 436 kts | 214° |
| 2026-04-27 12:39 | 39.02743 | -4.66247 | 37018 ft | 436 kts | 214° |
| 2026-04-27 12:40 | 38.97368 | -4.69795 | 37057 ft | 437 kts | 202° |
| 2026-04-27 12:40 | 38.91689 | -4.72602 | 37017 ft | 438 kts | 202° |
| 2026-04-27 12:41 | 38.85991 | -4.75373 | 37025 ft | 438 kts | 202° |
| 2026-04-27 12:41 | 38.80286 | -4.78134 | 37013 ft | 438 kts | 202° |
| 2026-04-27 12:42 | 38.74578 | -4.80891 | 37013 ft | 438 kts | 202° |
| 2026-04-27 12:42 | 38.68882 | -4.83637 | 37014 ft | 437 kts | 202° |
| 2026-04-27 12:43 | 38.63184 | -4.86380 | 37011 ft | 437 kts | 202° |
| 2026-04-27 12:43 | 38.57487 | -4.89118 | 37010 ft | 437 kts | 202° |
| 2026-04-27 12:44 | 38.51796 | -4.91848 | 37003 ft | 437 kts | 202° |
| 2026-04-27 12:44 | 38.46101 | -4.94575 | 37005 ft | 437 kts | 202° |
| 2026-04-27 12:45 | 38.40449 | -4.97278 | 37006 ft | 436 kts | 201° |
| 2026-04-27 12:45 | 38.34735 | -5.00005 | 37003 ft | 436 kts | 201° |
| 2026-04-27 12:46 | 38.29095 | -5.02692 | 36999 ft | 436 kts | 201° |
| 2026-04-27 12:46 | 38.23408 | -5.05398 | 37003 ft | 436 kts | 201° |
| 2026-04-27 12:47 | 38.17728 | -5.08095 | 37002 ft | 436 kts | 201° |
| 2026-04-27 12:47 | 38.12039 | -5.10793 | 36997 ft | 436 kts | 201° |
| 2026-04-27 12:48 | 38.06360 | -5.13481 | 36989 ft | 436 kts | 201° |
| 2026-04-27 12:48 | 38.00682 | -5.16164 | 36987 ft | 435 kts | 201° |
| 2026-04-27 12:49 | 37.94999 | -5.18845 | 36986 ft | 435 kts | 201° |
| 2026-04-27 12:49 | 37.89326 | -5.21517 | 36987 ft | 435 kts | 201° |
| 2026-04-27 12:50 | 37.83650 | -5.24187 | 36982 ft | 436 kts | 201° |
| 2026-04-27 12:50 | 37.77974 | -5.26851 | 36984 ft | 435 kts | 201° |
| 2026-04-27 12:51 | 37.72301 | -5.29510 | 36988 ft | 435 kts | 201° |
| 2026-04-27 12:51 | 37.66632 | -5.32162 | 36989 ft | 435 kts | 201° |
| 2026-04-27 12:52 | 37.60957 | -5.34813 | 36978 ft | 434 kts | 201° |
| 2026-04-27 12:52 | 37.55289 | -5.37457 | 36966 ft | 433 kts | 201° |
| 2026-04-27 12:53 | 37.46846 | -5.41387 | 36977 ft | 433 kts | 201° |
| 2026-04-27 12:53 | 37.41189 | -5.44014 | 36972 ft | 433 kts | 201° |
| 2026-04-27 12:54 | 37.35538 | -5.46635 | 36970 ft | 433 kts | 201° |
| 2026-04-27 12:54 | 37.29886 | -5.49252 | 36957 ft | 433 kts | 201° |
| 2026-04-27 12:55 | 37.24241 | -5.51862 | 36968 ft | 433 kts | 201° |
| 2026-04-27 12:55 | 37.18590 | -5.54470 | 36966 ft | 433 kts | 201° |
| 2026-04-27 12:56 | 37.12935 | -5.57075 | 36969 ft | 433 kts | 201° |
| 2026-04-27 12:56 | 37.07293 | -5.59671 | 36968 ft | 432 kts | 201° |
| 2026-04-27 12:57 | 37.01658 | -5.62260 | 36959 ft | 431 kts | 201° |
| 2026-04-27 12:57 | 36.96026 | -5.64843 | 36961 ft | 431 kts | 201° |
| 2026-04-27 12:58 | 36.90391 | -5.67423 | 36960 ft | 431 kts | 201° |
| 2026-04-27 12:58 | 36.84760 | -5.69997 | 36959 ft | 431 kts | 201° |
| 2026-04-27 12:59 | 36.79151 | -5.72557 | 36977 ft | 429 kts | 201° |
| 2026-04-27 12:59 | 36.73534 | -5.75117 | 36973 ft | 430 kts | 201° |
| 2026-04-27 13:00 | 36.67929 | -5.77668 | 36979 ft | 429 kts | 201° |
| 2026-04-27 13:00 | 36.62316 | -5.80217 | 36976 ft | 429 kts | 201° |
| 2026-04-27 13:01 | 36.56718 | -5.82757 | 36979 ft | 425 kts | 201° |
| 2026-04-27 13:01 | 36.51193 | -5.85259 | 36976 ft | 419 kts | 202° |
| 2026-04-27 13:02 | 36.45701 | -5.87744 | 36982 ft | 422 kts | 201° |
| 2026-04-27 13:02 | 36.40219 | -5.90220 | 36982 ft | 418 kts | 201° |
| 2026-04-27 13:03 | 36.34716 | -5.92703 | 36987 ft | 421 kts | 202° |
| 2026-04-27 13:03 | 36.29233 | -5.95171 | 36958 ft | 421 kts | 201° |
| 2026-04-27 13:04 | 36.23643 | -5.97249 | 36920 ft | 420 kts | 186° |
| 2026-04-27 13:04 | 36.17778 | -5.97155 | 36937 ft | 427 kts | 182° |
| 2026-04-27 13:05 | 36.11825 | -5.96912 | 36947 ft | 425 kts | 181° |
| 2026-04-27 13:05 | 36.05946 | -5.96615 | 36951 ft | 429 kts | 181° |
| 2026-04-27 13:06 | 35.99974 | -5.96305 | 36946 ft | 428 kts | 181° |
| 2026-04-27 13:06 | 35.94030 | -5.95997 | 36946 ft | 429 kts | 180° |
| 2026-04-27 13:07 | 35.88062 | -5.95689 | 36916 ft | 428 kts | 181° |
| 2026-04-27 13:07 | 35.82156 | -5.94987 | 36907 ft | 432 kts | 166° |
| 2026-04-27 13:08 | 35.76345 | -5.92941 | 36906 ft | 435 kts | 168° |
| 2026-04-27 13:08 | 35.70461 | -5.92000 | 36947 ft | 424 kts | 182° |
| 2026-04-27 13:09 | 35.65536 | -5.91891 | 36902 ft | 426 kts | 181° |
| 2026-04-27 13:09 | 35.59577 | -5.91818 | 36890 ft | 428 kts | 182° |
| 2026-04-27 13:10 | 35.53610 | -5.91771 | 36902 ft | 430 kts | 182° |
| 2026-04-27 13:10 | 35.47632 | -5.91725 | 36895 ft | 430 kts | 182° |
| 2026-04-27 13:11 | 35.41645 | -5.91679 | 36888 ft | 430 kts | 182° |
| 2026-04-27 13:11 | 35.35662 | -5.91834 | 36868 ft | 430 kts | 184° |
| 2026-04-27 13:12 | 35.29686 | -5.91999 | 36866 ft | 429 kts | 183° |
| 2026-04-27 13:12 | 35.23711 | -5.92159 | 36863 ft | 429 kts | 183° |
| 2026-04-27 13:13 | 35.17744 | -5.92319 | 36855 ft | 429 kts | 183° |
| 2026-04-27 13:13 | 35.11809 | -5.92477 | 36848 ft | 429 kts | 183° |
| 2026-04-27 13:14 | 35.05841 | -5.92636 | 36844 ft | 428 kts | 183° |
| 2026-04-27 13:14 | 34.99886 | -5.92795 | 36843 ft | 428 kts | 183° |
| 2026-04-27 13:15 | 34.93935 | -5.92971 | 36838 ft | 427 kts | 186° |
| 2026-04-27 13:15 | 34.91049 | -5.93681 | 36834 ft | 422 kts | 202° |
| 2026-04-27 13:15 | 34.88467 | -5.95355 | 36840 ft | 421 kts | 216° |
| 2026-04-27 13:16 | 34.83770 | -5.99671 | 36823 ft | 423 kts | 218° |
| 2026-04-27 13:16 | 34.79180 | -6.04125 | 36830 ft | 422 kts | 218° |
| 2026-04-27 13:17 | 34.74609 | -6.08634 | 36832 ft | 422 kts | 218° |
| 2026-04-27 13:17 | 34.70048 | -6.13143 | 36825 ft | 423 kts | 218° |
| 2026-04-27 13:18 | 34.65478 | -6.17656 | 36822 ft | 423 kts | 218° |
| 2026-04-27 13:18 | 34.60916 | -6.22155 | 36822 ft | 423 kts | 218° |
| 2026-04-27 13:19 | 34.56373 | -6.26629 | 36816 ft | 423 kts | 218° |
| 2026-04-27 13:19 | 34.51816 | -6.31109 | 36819 ft | 421 kts | 217° |
| 2026-04-27 13:20 | 34.49356 | -6.33001 | 36683 ft | 417 kts | 204° |
| 2026-04-27 13:20 | 34.46635 | -6.34121 | 36100 ft | 413 kts | 198° |
| 2026-04-27 13:20 | 34.43894 | -6.35151 | 35544 ft | 411 kts | 198° |
| 2026-04-27 13:20 | 34.41165 | -6.36150 | 34911 ft | 409 kts | 197° |
| 2026-04-27 13:21 | 34.38414 | -6.37136 | 34152 ft | 416 kts | 197° |
| 2026-04-27 13:21 | 34.35614 | -6.38126 | 33273 ft | 420 kts | 197° |
| 2026-04-27 13:21 | 34.32798 | -6.39117 | 32421 ft | 423 kts | 197° |
| 2026-04-27 13:21 | 34.29970 | -6.40109 | 31667 ft | 422 kts | 197° |
| 2026-04-27 13:22 | 34.27127 | -6.41106 | 31071 ft | 428 kts | 197° |
| 2026-04-27 13:22 | 34.24270 | -6.42107 | 30532 ft | 431 kts | 197° |
| 2026-04-27 13:22 | 34.21374 | -6.43121 | 29948 ft | 432 kts | 197° |
| 2026-04-27 13:22 | 34.18503 | -6.44125 | 29248 ft | 428 kts | 197° |
| 2026-04-27 13:23 | 34.15654 | -6.45120 | 28630 ft | 423 kts | 197° |
| 2026-04-27 13:23 | 34.12847 | -6.46101 | 28058 ft | 418 kts | 196° |
| 2026-04-27 13:23 | 34.10063 | -6.47072 | 27503 ft | 414 kts | 196° |
| 2026-04-27 13:23 | 34.07317 | -6.48030 | 26921 ft | 410 kts | 196° |
| 2026-04-27 13:24 | 34.04581 | -6.48984 | 26370 ft | 407 kts | 196° |
| 2026-04-27 13:24 | 34.01873 | -6.49927 | 25823 ft | 403 kts | 196° |
| 2026-04-27 13:24 | 33.99194 | -6.50875 | 25275 ft | 401 kts | 198° |
| 2026-04-27 13:24 | 33.96708 | -6.52389 | 24604 ft | 403 kts | 215° |
| 2026-04-27 13:25 | 33.94615 | -6.54613 | 24077 ft | 402 kts | 221° |
| 2026-04-27 13:25 | 33.92584 | -6.56904 | 23579 ft | 399 kts | 222° |
| 2026-04-27 13:25 | 33.90580 | -6.59203 | 22989 ft | 397 kts | 222° |
| 2026-04-27 13:25 | 33.88593 | -6.61508 | 22411 ft | 395 kts | 223° |
| 2026-04-27 13:26 | 33.86633 | -6.63795 | 21888 ft | 391 kts | 223° |
| 2026-04-27 13:26 | 33.84690 | -6.66066 | 21365 ft | 388 kts | 223° |
| 2026-04-27 13:26 | 33.82789 | -6.68290 | 20889 ft | 384 kts | 223° |
| 2026-04-27 13:26 | 33.80887 | -6.70514 | 20408 ft | 381 kts | 223° |
| 2026-04-27 13:27 | 33.78997 | -6.72724 | 19929 ft | 378 kts | 223° |
| 2026-04-27 13:27 | 33.77119 | -6.74917 | 19453 ft | 375 kts | 223° |
| 2026-04-27 13:27 | 33.75254 | -6.77093 | 18990 ft | 372 kts | 223° |
| 2026-04-27 13:27 | 33.73403 | -6.79253 | 18537 ft | 369 kts | 223° |
| 2026-04-27 13:28 | 33.71548 | -6.81416 | 18069 ft | 367 kts | 223° |
| 2026-04-27 13:28 | 33.69743 | -6.83518 | 17574 ft | 364 kts | 223° |
| 2026-04-27 13:28 | 33.67929 | -6.85630 | 17114 ft | 361 kts | 223° |
| 2026-04-27 13:28 | 33.66114 | -6.87739 | 16674 ft | 357 kts | 221° |
| 2026-04-27 13:29 | 33.64113 | -6.89381 | 16161 ft | 353 kts | 202° |
| 2026-04-27 13:29 | 33.61833 | -6.90388 | 15807 ft | 347 kts | 199° |
| 2026-04-27 13:29 | 33.59573 | -6.91340 | 15419 ft | 343 kts | 198° |
| 2026-04-27 13:29 | 33.57325 | -6.92262 | 15029 ft | 339 kts | 198° |
| 2026-04-27 13:30 | 33.55099 | -6.93160 | 14630 ft | 336 kts | 198° |
| 2026-04-27 13:30 | 33.52894 | -6.94039 | 14244 ft | 335 kts | 197° |
| 2026-04-27 13:30 | 33.50661 | -6.94926 | 13856 ft | 339 kts | 197° |
| 2026-04-27 13:30 | 33.48408 | -6.95817 | 13405 ft | 342 kts | 197° |
| 2026-04-27 13:31 | 33.46146 | -6.96710 | 12956 ft | 342 kts | 197° |
| 2026-04-27 13:31 | 33.43887 | -6.97603 | 12549 ft | 340 kts | 197° |
| 2026-04-27 13:31 | 33.41651 | -6.98485 | 12145 ft | 338 kts | 197° |
| 2026-04-27 13:31 | 33.39425 | -6.99363 | 11738 ft | 336 kts | 197° |
| 2026-04-27 13:32 | 33.37212 | -7.00235 | 11352 ft | 334 kts | 198° |
| 2026-04-27 13:32 | 33.35006 | -7.01103 | 10973 ft | 333 kts | 198° |
| 2026-04-27 13:32 | 33.32835 | -7.01958 | 10787 ft | 323 kts | 198° |
| 2026-04-27 13:32 | 33.30744 | -7.02781 | 10617 ft | 312 kts | 198° |
| 2026-04-27 13:33 | 33.28718 | -7.03577 | 10501 ft | 300 kts | 198° |
| 2026-04-27 13:33 | 33.26793 | -7.04334 | 10350 ft | 283 kts | 198° |
| 2026-04-27 13:33 | 33.25015 | -7.05033 | 10235 ft | 269 kts | 198° |
| 2026-04-27 13:33 | 33.23225 | -7.05736 | 10078 ft | 260 kts | 197° |
| 2026-04-27 13:34 | 33.21537 | -7.06398 | 9968 ft | 252 kts | 197° |
| 2026-04-27 13:34 | 33.19899 | -7.07156 | 9783 ft | 257 kts | 210° |
| 2026-04-27 13:34 | 33.18587 | -7.08641 | 9457 ft | 265 kts | 235° |
| 2026-04-27 13:34 | 33.17902 | -7.10693 | 9157 ft | 272 kts | 256° |
| 2026-04-27 13:35 | 33.17524 | -7.12925 | 8865 ft | 274 kts | 256° |
| 2026-04-27 13:35 | 33.17153 | -7.15158 | 8557 ft | 275 kts | 257° |
| 2026-04-27 13:35 | 33.16791 | -7.17395 | 8260 ft | 275 kts | 256° |
| 2026-04-27 13:35 | 33.16437 | -7.19627 | 7960 ft | 272 kts | 256° |
| 2026-04-27 13:36 | 33.16090 | -7.21834 | 7671 ft | 270 kts | 256° |
| 2026-04-27 13:36 | 33.15752 | -7.23994 | 7387 ft | 267 kts | 256° |
| 2026-04-27 13:36 | 33.15411 | -7.26170 | 7100 ft | 265 kts | 257° |
| 2026-04-27 13:36 | 33.15075 | -7.28326 | 6814 ft | 264 kts | 256° |
| 2026-04-27 13:37 | 33.14737 | -7.30478 | 6509 ft | 263 kts | 257° |
| 2026-04-27 13:37 | 33.14403 | -7.32619 | 6230 ft | 262 kts | 256° |
| 2026-04-27 13:37 | 33.14068 | -7.34751 | 5929 ft | 260 kts | 257° |
| 2026-04-27 13:37 | 33.13735 | -7.36862 | 5623 ft | 259 kts | 257° |
| 2026-04-27 13:38 | 33.13405 | -7.38967 | 5353 ft | 256 kts | 257° |
| 2026-04-27 13:38 | 33.13079 | -7.41036 | 5154 ft | 250 kts | 258° |
| 2026-04-27 13:38 | 33.12769 | -7.43010 | 5110 ft | 232 kts | 257° |
| 2026-04-27 13:38 | 33.12480 | -7.44844 | 4997 ft | 218 kts | 257° |
| 2026-04-27 13:39 | 33.12208 | -7.46565 | 4873 ft | 205 kts | 258° |
| 2026-04-27 13:39 | 33.11975 | -7.48177 | 4769 ft | 192 kts | 265° |
| 2026-04-27 13:39 | 33.12270 | -7.49697 | 4549 ft | 187 kts | 303° |
| 2026-04-27 13:39 | 33.13221 | -7.50691 | 4419 ft | 182 kts | 339° |
| 2026-04-27 13:40 | 33.14427 | -7.51144 | 4477 ft | 185 kts | 345° |
| 2026-04-27 13:40 | 33.15670 | -7.51569 | 4384 ft | 187 kts | 345° |
| 2026-04-27 13:40 | 33.16913 | -7.51996 | 4147 ft | 184 kts | 345° |
| 2026-04-27 13:40 | 33.18136 | -7.52410 | 3924 ft | 181 kts | 346° |
| 2026-04-27 13:41 | 33.19336 | -7.52862 | 3673 ft | 179 kts | 339° |
| 2026-04-27 13:41 | 33.20449 | -7.53470 | 3482 ft | 175 kts | 337° |
| 2026-04-27 13:41 | 33.21570 | -7.53984 | 3306 ft | 171 kts | 343° |
| 2026-04-27 13:41 | 33.22714 | -7.54407 | 3079 ft | 172 kts | 346° |
| 2026-04-27 13:42 | 33.23822 | -7.54787 | 2889 ft | 158 kts | 343° |
| 2026-04-27 13:42 | 33.24857 | -7.55138 | 2696 ft | 153 kts | 343° |
| 2026-04-27 13:42 | 33.25873 | -7.55488 | 2501 ft | 150 kts | 344° |
| 2026-04-27 13:42 | 33.26873 | -7.55829 | 2312 ft | 150 kts | 344° |
| 2026-04-27 13:43 | 33.27859 | -7.56166 | 2104 ft | 142 kts | 345° |
| 2026-04-27 13:43 | 33.28796 | -7.56487 | 1916 ft | 139 kts | 344° |
| 2026-04-27 13:43 | 33.29725 | -7.56806 | 1770 ft | 138 kts | 343° |
| 2026-04-27 13:43 | 33.30637 | -7.57118 | 1595 ft | 135 kts | 343° |
| 2026-04-27 13:44 | 33.31527 | -7.57418 | 1411 ft | 132 kts | 342° |
| 2026-04-27 13:44 | 33.32393 | -7.57715 | 1234 ft | 131 kts | 343° |
| 2026-04-27 13:44 | 33.33313 | -7.58013 | 1080 ft | 137 kts | 341° |
| 2026-04-27 13:44 | 33.34212 | -7.58335 | 838 ft | 128 kts | 339° |
| 2026-04-27 13:45 | 33.35063 | -7.58627 | 700 ft | 130 kts | 341° |
| 2026-04-27 13:45 | 33.35868 | -7.58911 | 654 ft | 104 kts | 343° |
| 2026-04-27 13:45 | 33.36446 | -7.59109 | 653 ft | 66 kts | 343° |
| 2026-04-27 13:45 | 33.36785 | -7.59226 | 652 ft | 44 kts | 343° |
| 2026-04-27 13:46 | 33.37078 | -7.59324 | 657 ft | 43 kts | 344° |
| 2026-04-27 13:46 | 33.37359 | -7.59420 | 657 ft | 41 kts | 345° |
| 2026-04-27 13:46 | 33.37619 | -7.59510 | 658 ft | 30 kts | 344° |
| 2026-04-27 13:46 | 33.37719 | -7.59492 | 653 ft | 14 kts | 61° |
| 2026-04-27 13:47 | 33.37748 | -7.59375 | 658 ft | 16 kts | 74° |
| 2026-04-27 13:47 | 33.37781 | -7.59232 | 651 ft | 21 kts | 74° |
| 2026-04-27 13:47 | 33.37826 | -7.59050 | 649 ft | 22 kts | 73° |
| 2026-04-27 13:47 | 33.37858 | -7.58919 | 657 ft | 0 kts | 73° |
| 2026-04-27 13:49 | 33.37858 | -7.58918 | 657 ft | 1 kts | 73° |
| 2026-04-27 13:49 | 33.37866 | -7.58887 | 657 ft | 8 kts | 73° |
| 2026-04-27 13:49 | 33.37895 | -7.58774 | 658 ft | 16 kts | 73° |
| 2026-04-27 13:49 | 33.37908 | -7.58717 | 657 ft | 0 kts | 79° |
| 2026-04-27 13:50 | 33.37908 | -7.58713 | 657 ft | 2 kts | 79° |
| 2026-04-27 13:50 | 33.37911 | -7.58686 | 655 ft | 5 kts | 90° |
| 2026-04-27 13:50 | 33.37900 | -7.58639 | 656 ft | 7 kts | 115° |
| 2026-04-27 13:51 | 33.37867 | -7.58582 | 660 ft | 10 kts | 127° |
| 2026-04-27 13:51 | 33.37815 | -7.58513 | 658 ft | 13 kts | 133° |
| 2026-04-27 13:51 | 33.37733 | -7.58460 | 656 ft | 15 kts | 166° |
| 2026-04-27 13:51 | 33.37635 | -7.58438 | 655 ft | 15 kts | 178° |
| 2026-04-27 13:52 | 33.37526 | -7.58411 | 658 ft | 17 kts | 163° |
| 2026-04-27 13:52 | 33.37409 | -7.58373 | 655 ft | 17 kts | 165° |
| 2026-04-27 13:52 | 33.37289 | -7.58333 | 656 ft | 18 kts | 164° |
| 2026-04-27 13:52 | 33.37181 | -7.58298 | 659 ft | 12 kts | 165° |
| 2026-04-27 13:53 | 33.37152 | -7.58282 | 656 ft | 1 kts | 124° |
| 2026-04-27 13:53 | 33.37142 | -7.58261 | 657 ft | 4 kts | 102° |
| 2026-04-27 13:53 | 33.37153 | -7.58219 | 656 ft | 6 kts | 66° |
| 2026-04-27 13:54 | 33.37163 | -7.58191 | 655 ft | 1 kts | 65° |
| 2026-04-27 13:54 | 33.37165 | -7.58187 | 655 ft | 0 kts | 61° |
| 2026-04-27 13:54 | 33.37167 | -7.58182 | 655 ft | 0 kts | 62° |
| 2026-04-27 13:58 | 33.37167 | -7.58183 | 655 ft | 0 kts | 62° |